sensor_id;sensor_type;location;lat;lon;timestamp;pressure;altitude;pressure_sealevel;temperature;humidity
9325;BME280;4701;51.566;6.776;2023-10-13T05:13:57;100498.47;;;17.73;100.00
9325;BME280;4701;51.566;6.776;2023-10-13T05:19:25;100489.91;;;17.75;100.00
9325;BME280;4701;51.566;6.776;2023-10-13T05:24:44;100495.91;;;17.77;100.00
9325;BME280;4701;51.566;6.776;2023-10-13T05:30:05;100480.66;;;17.80;100.00
9325;BME280;4701;51.566;6.776;2023-10-13T05:35:25;100501.75;;;17.84;100.00
9325;BME280;4701;51.566;6.776;2023-10-13T05:40:51;100496.75;;;17.86;100.00
9325;BME280;4701;51.566;6.776;2023-10-13T05:46:11;100507.59;;;17.91;100.00
9325;BME280;4701;51.566;6.776;2023-10-13T05:51:49;100518.00;;;17.94;100.00
9325;BME280;4701;51.566;6.776;2023-10-13T05:57:07;100507.44;;;17.96;100.00
9325;BME280;4701;51.566;6.776;2023-10-13T06:02:27;100512.00;;;18.01;100.00
9325;BME280;4701;51.566;6.776;2023-10-13T06:07:47;100501.63;;;18.06;100.00
9325;BME280;4701;51.566;6.776;2023-10-13T06:13:06;100484.75;;;18.08;100.00
9325;BME280;4701;51.566;6.776;2023-10-13T06:18:27;100470.81;;;18.13;100.00
9325;BME280;4701;51.566;6.776;2023-10-13T06:23:45;100468.22;;;18.17;100.00
9325;BME280;4701;51.566;6.776;2023-10-13T06:29:16;100474.22;;;18.19;100.00
9325;BME280;4701;51.566;6.776;2023-10-13T06:34:21;100465.78;;;18.24;100.00
9325;BME280;4701;51.566;6.776;2023-10-13T06:39:37;100449.41;;;18.27;100.00
9325;BME280;4701;51.566;6.776;2023-10-13T06:44:39;100449.88;;;18.29;100.00
9325;BME280;4701;51.566;6.776;2023-10-13T06:49:48;100446.47;;;18.32;100.00
9325;BME280;4701;51.566;6.776;2023-10-13T06:54:52;100451.34;;;18.35;100.00
9325;BME280;4701;51.566;6.776;2023-10-13T06:59:54;100454.56;;;18.37;100.00
9325;BME280;4701;51.566;6.776;2023-10-13T07:04:57;100451.97;;;18.41;100.00
9325;BME280;4701;51.566;6.776;2023-10-13T07:10:08;100461.88;;;18.42;100.00
9325;BME280;4701;51.566;6.776;2023-10-13T07:15:12;100456.88;;;18.44;100.00
9325;BME280;4701;51.566;6.776;2023-10-13T07:20:21;100453.78;;;18.45;100.00
9325;BME280;4701;51.566;6.776;2023-10-13T07:25:33;100445.97;;;18.47;100.00
9325;BME280;4701;51.566;6.776;2023-10-13T07:30:38;100428.75;;;18.50;100.00
9325;BME280;4701;51.566;6.776;2023-10-13T07:36:01;100428.94;;;18.54;100.00
9325;BME280;4701;51.566;6.776;2023-10-13T07:41:11;100427.97;;;18.59;100.00
9325;BME280;4701;51.566;6.776;2023-10-13T07:46:16;100429.59;;;18.60;100.00
9325;BME280;4701;51.566;6.776;2023-10-13T07:51:19;100426.66;;;18.65;100.00
9325;BME280;4701;51.566;6.776;2023-10-13T07:56:23;100426.81;;;18.68;100.00
9325;BME280;4701;51.566;6.776;2023-10-13T08:01:30;100423.06;;;18.73;100.00
9325;BME280;4701;51.566;6.776;2023-10-13T08:06:34;100419.66;;;18.76;100.00
9325;BME280;4701;51.566;6.776;2023-10-13T08:11:37;100394.16;;;18.79;100.00
9325;BME280;4701;51.566;6.776;2023-10-13T08:16:40;100383.25;;;18.82;100.00
9325;BME280;4701;51.566;6.776;2023-10-13T08:21:55;100381.47;;;18.86;100.00
9325;BME280;4701;51.566;6.776;2023-10-13T08:26:59;100376.06;;;18.90;100.00
9325;BME280;4701;51.566;6.776;2023-10-13T08:32:32;100355.75;;;18.95;100.00
9325;BME280;4701;51.566;6.776;2023-10-13T08:37:46;100346.13;;;19.01;100.00
9325;BME280;4701;51.566;6.776;2023-10-13T08:43:01;100329.72;;;19.04;100.00
9325;BME280;4701;51.566;6.776;2023-10-13T08:48:13;100333.09;;;19.10;100.00
9325;BME280;4701;51.566;6.776;2023-10-13T08:53:17;100326.91;;;19.13;100.00
9325;BME280;4701;51.566;6.776;2023-10-13T08:58:28;100323.13;;;19.17;100.00
9325;BME280;4701;51.566;6.776;2023-10-13T09:03:50;100316.63;;;19.22;100.00
9325;BME280;4701;51.566;6.776;2023-10-13T09:09:04;100315.59;;;19.26;100.00
9325;BME280;4701;51.566;6.776;2023-10-13T09:14:13;100312.63;;;19.32;100.00
9325;BME280;4701;51.566;6.776;2023-10-13T09:19:42;100309.69;;;19.37;100.00
9325;BME280;4701;51.566;6.776;2023-10-13T09:24:48;100319.38;;;19.43;100.00
9325;BME280;4701;51.566;6.776;2023-10-13T09:29:55;100299.91;;;19.48;100.00
9325;BME280;4701;51.566;6.776;2023-10-13T09:35:00;100281.63;;;19.55;100.00
9325;BME280;4701;51.566;6.776;2023-10-13T09:40:08;100283.84;;;19.62;100.00
9325;BME280;4701;51.566;6.776;2023-10-13T09:45:28;100291.59;;;19.69;100.00
9325;BME280;4701;51.566;6.776;2023-10-13T09:50:30;100275.56;;;19.74;97.29
9325;BME280;4701;51.566;6.776;2023-10-13T09:55:36;100266.41;;;19.82;94.85
9325;BME280;4701;51.566;6.776;2023-10-13T17:03:36;99996.41;;;20.94;70.53
9325;BME280;4701;51.566;6.776;2023-10-13T17:08:38;99986.59;;;20.97;71.10
9325;BME280;4701;51.566;6.776;2023-10-13T17:13:41;99983.94;;;21.00;71.09
9325;BME280;4701;51.566;6.776;2023-10-13T17:18:45;99965.41;;;21.04;70.97
9325;BME280;4701;51.566;6.776;2023-10-13T17:23:48;99963.56;;;21.08;71.54
9325;BME280;4701;51.566;6.776;2023-10-13T17:28:50;99960.06;;;21.11;71.57
9325;BME280;4701;51.566;6.776;2023-10-13T17:33:56;99943.09;;;21.13;70.75
9325;BME280;4701;51.566;6.776;2023-10-13T17:38:58;99957.75;;;21.13;71.30
9325;BME280;4701;51.566;6.776;2023-10-13T17:44:00;99966.88;;;21.14;71.31
9325;BME280;4701;51.566;6.776;2023-10-13T17:49:04;99973.22;;;21.14;71.95
9325;BME280;4701;51.566;6.776;2023-10-13T17:54:05;99975.53;;;21.12;72.52
9325;BME280;4701;51.566;6.776;2023-10-13T17:59:07;99951.31;;;21.09;72.83
9325;BME280;4701;51.566;6.776;2023-10-13T18:04:12;99949.25;;;21.06;73.41
9325;BME280;4701;51.566;6.776;2023-10-13T18:09:14;99926.97;;;21.03;73.71
9325;BME280;4701;51.566;6.776;2023-10-13T18:14:17;99921.72;;;20.98;73.82
9325;BME280;4701;51.566;6.776;2023-10-13T18:19:21;99918.03;;;20.94;74.02
9325;BME280;4701;51.566;6.776;2023-10-13T18:24:27;99910.81;;;20.89;74.69
9325;BME280;4701;51.566;6.776;2023-10-13T18:29:29;99904.47;;;20.89;74.63
9325;BME280;4701;51.566;6.776;2023-10-13T18:34:32;99894.81;;;20.83;74.89
9325;BME280;4701;51.566;6.776;2023-10-13T18:39:34;99883.63;;;20.79;75.04
9325;BME280;4701;51.566;6.776;2023-10-13T18:44:35;99868.09;;;20.74;75.06
9325;BME280;4701;51.566;6.776;2023-10-13T18:49:38;99869.50;;;20.68;75.36
9325;BME280;4701;51.566;6.776;2023-10-13T18:54:40;99869.88;;;20.67;75.55
